sensor_id;sensor_type;location;lat;lon;timestamp;P1;durP1;ratioP1;P2;durP2;ratioP2
59169;SDS011;52474;52.236;5.114;2022-11-20T00:01:09;30.83;;;14.57;;
59169;SDS011;52474;52.236;5.114;2022-11-20T00:03:37;26.17;;;12.82;;
59169;SDS011;52474;52.236;5.114;2022-11-20T00:06:03;28.75;;;12.60;;
59169;SDS011;52474;52.236;5.114;2022-11-20T00:08:30;24.88;;;11.10;;
59169;SDS011;52474;52.236;5.114;2022-11-20T00:10:56;22.85;;;10.88;;
59169;SDS011;52474;52.236;5.114;2022-11-20T00:13:22;23.77;;;11.23;;
59169;SDS011;52474;52.236;5.114;2022-11-20T00:15:48;23.95;;;11.25;;
59169;SDS011;52474;52.236;5.114;2022-11-20T00:18:14;24.88;;;11.63;;
59169;SDS011;52474;52.236;5.114;2022-11-20T00:20:40;26.27;;;12.90;;
59169;SDS011;52474;52.236;5.114;2022-11-20T00:23:05;26.90;;;13.32;;
59169;SDS011;52474;52.236;5.114;2022-11-20T00:25:33;26.75;;;12.13;;
59169;SDS011;52474;52.236;5.114;2022-11-20T00:27:59;24.83;;;11.95;;
59169;SDS011;52474;52.236;5.114;2022-11-20T00:30:25;27.05;;;12.15;;
59169;SDS011;52474;52.236;5.114;2022-11-20T00:32:51;23.23;;;11.25;;
59169;SDS011;52474;52.236;5.114;2022-11-20T00:35:16;27.33;;;12.70;;
59169;SDS011;52474;52.236;5.114;2022-11-20T00:37:42;27.92;;;12.10;;
59169;SDS011;52474;52.236;5.114;2022-11-20T00:40:08;26.48;;;11.90;;
59169;SDS011;52474;52.236;5.114;2022-11-20T00:42:34;24.60;;;11.77;;
59169;SDS011;52474;52.236;5.114;2022-11-20T00:45:00;24.50;;;11.60;;
59169;SDS011;52474;52.236;5.114;2022-11-20T00:47:25;24.02;;;11.00;;
59169;SDS011;52474;52.236;5.114;2022-11-20T00:49:51;22.23;;;10.25;;
59169;SDS011;52474;52.236;5.114;2022-11-20T00:52:17;38.10;;;17.38;;
59169;SDS011;52474;52.236;5.114;2022-11-20T00:54:43;73.18;;;26.35;;
59169;SDS011;52474;52.236;5.114;2022-11-20T00:57:09;62.40;;;23.67;;
59169;SDS011;52474;52.236;5.114;2022-11-20T00:59:34;46.30;;;18.67;;
59169;SDS011;52474;52.236;5.114;2022-11-20T01:02:00;38.50;;;15.45;;
59169;SDS011;52474;52.236;5.114;2022-11-20T01:04:26;26.40;;;11.68;;
59169;SDS011;52474;52.236;5.114;2022-11-20T01:06:51;27.98;;;12.70;;
59169;SDS011;52474;52.236;5.114;2022-11-20T01:09:17;166.60;;;52.47;;
59169;SDS011;52474;52.236;5.114;2022-11-20T01:11:43;38.67;;;16.52;;
59169;SDS011;52474;52.236;5.114;2022-11-20T01:14:11;74.40;;;26.50;;
59169;SDS011;52474;52.236;5.114;2022-11-20T01:16:41;65.63;;;21.30;;
59169;SDS011;52474;52.236;5.114;2022-11-20T01:19:13;28.83;;;11.65;;
59169;SDS011;52474;52.236;5.114;2022-11-20T01:21:42;21.65;;;10.00;;
59169;SDS011;52474;52.236;5.114;2022-11-20T01:24:13;21.33;;;9.50;;
59169;SDS011;52474;52.236;5.114;2022-11-20T01:26:40;24.92;;;11.40;;
59169;SDS011;52474;52.236;5.114;2022-11-20T01:29:12;30.25;;;12.30;;
59169;SDS011;52474;52.236;5.114;2022-11-20T01:31:41;33.65;;;14.07;;
59169;SDS011;52474;52.236;5.114;2022-11-20T01:34:09;28.05;;;9.75;;
59169;SDS011;52474;52.236;5.114;2022-11-20T01:36:38;20.05;;;9.40;;
59169;SDS011;52474;52.236;5.114;2022-11-20T01:39:05;20.80;;;9.80;;
59169;SDS011;52474;52.236;5.114;2022-11-20T01:44:20;20.98;;;9.20;;
59169;SDS011;52474;52.236;5.114;2022-11-20T01:47:08;22.05;;;10.13;;
59169;SDS011;52474;52.236;5.114;2022-11-20T01:49:39;23.02;;;10.57;;
59169;SDS011;52474;52.236;5.114;2022-11-20T01:52:16;22.52;;;9.55;;
59169;SDS011;52474;52.236;5.114;2022-11-20T01:54:54;25.05;;;11.43;;
59169;SDS011;52474;52.236;5.114;2022-11-20T01:57:24;23.45;;;10.38;;
59169;SDS011;52474;52.236;5.114;2022-11-20T02:00:00;28.27;;;11.93;;
59169;SDS011;52474;52.236;5.114;2022-11-20T02:02:38;59.47;;;21.70;;
59169;SDS011;52474;52.236;5.114;2022-11-20T02:05:12;28.40;;;11.82;;
59169;SDS011;52474;52.236;5.114;2022-11-20T02:07:45;21.37;;;9.93;;
59169;SDS011;52474;52.236;5.114;2022-11-20T02:10:12;21.80;;;10.65;;
59169;SDS011;52474;52.236;5.114;2022-11-20T02:12:38;24.27;;;10.88;;
59169;SDS011;52474;52.236;5.114;2022-11-20T02:15:22;21.38;;;9.68;;
59169;SDS011;52474;52.236;5.114;2022-11-20T02:17:48;17.75;;;9.15;;
59169;SDS011;52474;52.236;5.114;2022-11-20T02:20:13;21.17;;;9.63;;
59169;SDS011;52474;52.236;5.114;2022-11-20T02:22:43;29.10;;;12.35;;
59169;SDS011;52474;52.236;5.114;2022-11-20T02:25:18;36.53;;;14.77;;
59169;SDS011;52474;52.236;5.114;2022-11-20T02:27:45;26.05;;;10.88;;
59169;SDS011;52474;52.236;5.114;2022-11-20T02:30:11;28.65;;;11.40;;
59169;SDS011;52474;52.236;5.114;2022-11-20T02:32:37;23.85;;;10.20;;
59169;SDS011;52474;52.236;5.114;2022-11-20T02:35:07;27.80;;;10.73;;
59169;SDS011;52474;52.236;5.114;2022-11-20T02:37:46;20.27;;;9.98;;
59169;SDS011;52474;52.236;5.114;2022-11-20T02:42:40;25.15;;;10.68;;
59169;SDS011;52474;52.236;5.114;2022-11-20T02:45:07;23.20;;;9.75;;
59169;SDS011;52474;52.236;5.114;2022-11-20T02:47:33;19.70;;;9.45;;
59169;SDS011;52474;52.236;5.114;2022-11-20T02:49:59;19.88;;;9.05;;
59169;SDS011;52474;52.236;5.114;2022-11-20T02:52:25;23.30;;;10.57;;
59169;SDS011;52474;52.236;5.114;2022-11-20T02:54:51;23.73;;;10.80;;
59169;SDS011;52474;52.236;5.114;2022-11-20T02:57:16;21.60;;;10.05;;
59169;SDS011;52474;52.236;5.114;2022-11-20T02:59:42;24.05;;;10.00;;
59169;SDS011;52474;52.236;5.114;2022-11-20T03:02:08;28.25;;;11.70;;
59169;SDS011;52474;52.236;5.114;2022-11-20T03:04:34;20.13;;;8.73;;
59169;SDS011;52474;52.236;5.114;2022-11-20T03:06:59;21.27;;;9.93;;
59169;SDS011;52474;52.236;5.114;2022-11-20T03:09:25;22.92;;;10.23;;
59169;SDS011;52474;52.236;5.114;2022-11-20T03:11:50;41.75;;;13.57;;
59169;SDS011;52474;52.236;5.114;2022-11-20T03:14:16;29.40;;;11.68;;
59169;SDS011;52474;52.236;5.114;2022-11-20T03:16:42;30.23;;;12.40;;
59169;SDS011;52474;52.236;5.114;2022-11-20T03:19:08;28.20;;;10.35;;
59169;SDS011;52474;52.236;5.114;2022-11-20T03:21:34;78.38;;;26.40;;
59169;SDS011;52474;52.236;5.114;2022-11-20T03:24:00;83.50;;;27.95;;
59169;SDS011;52474;52.236;5.114;2022-11-20T03:26:26;86.57;;;28.17;;
59169;SDS011;52474;52.236;5.114;2022-11-20T03:28:53;41.55;;;16.27;;
59169;SDS011;52474;52.236;5.114;2022-11-20T03:31:21;23.67;;;10.35;;
59169;SDS011;52474;52.236;5.114;2022-11-20T03:33:52;24.90;;;10.40;;
59169;SDS011;52474;52.236;5.114;2022-11-20T03:36:18;21.52;;;9.85;;
59169;SDS011;52474;52.236;5.114;2022-11-20T03:38:45;25.70;;;11.05;;
59169;SDS011;52474;52.236;5.114;2022-11-20T03:41:15;42.30;;;15.63;;
59169;SDS011;52474;52.236;5.114;2022-11-20T03:43:49;24.90;;;10.05;;
59169;SDS011;52474;52.236;5.114;2022-11-20T03:46:16;22.00;;;8.90;;
59169;SDS011;52474;52.236;5.114;2022-11-20T03:48:42;21.90;;;9.63;;
59169;SDS011;52474;52.236;5.114;2022-11-20T03:53:34;38.15;;;14.10;;
59169;SDS011;52474;52.236;5.114;2022-11-20T03:56:00;22.40;;;9.82;;
59169;SDS011;52474;52.236;5.114;2022-11-20T03:58:25;26.45;;;9.95;;
59169;SDS011;52474;52.236;5.114;2022-11-20T04:00:51;29.33;;;12.30;;
59169;SDS011;52474;52.236;5.114;2022-11-20T04:03:16;30.80;;;12.48;;
59169;SDS011;52474;52.236;5.114;2022-11-20T04:05:42;74.25;;;28.42;;
59169;SDS011;52474;52.236;5.114;2022-11-20T04:08:08;45.65;;;19.05;;
59169;SDS011;52474;52.236;5.114;2022-11-20T04:10:33;35.05;;;14.73;;
59169;SDS011;52474;52.236;5.114;2022-11-20T04:12:59;22.60;;;10.10;;
59169;SDS011;52474;52.236;5.114;2022-11-20T04:15:25;33.38;;;13.75;;
59169;SDS011;52474;52.236;5.114;2022-11-20T04:17:50;23.65;;;10.48;;
59169;SDS011;52474;52.236;5.114;2022-11-20T04:20:16;21.67;;;10.18;;
59169;SDS011;52474;52.236;5.114;2022-11-20T04:22:42;27.63;;;9.70;;
59169;SDS011;52474;52.236;5.114;2022-11-20T04:25:08;20.25;;;9.70;;
59169;SDS011;52474;52.236;5.114;2022-11-20T04:27:33;23.83;;;10.38;;
59169;SDS011;52474;52.236;5.114;2022-11-20T04:29:59;32.58;;;15.02;;
59169;SDS011;52474;52.236;5.114;2022-11-20T04:32:25;27.10;;;11.27;;
59169;SDS011;52474;52.236;5.114;2022-11-20T04:34:50;44.65;;;16.48;;
59169;SDS011;52474;52.236;5.114;2022-11-20T04:37:16;34.97;;;14.68;;
59169;SDS011;52474;52.236;5.114;2022-11-20T04:39:42;39.92;;;16.30;;
59169;SDS011;52474;52.236;5.114;2022-11-20T04:42:08;63.33;;;21.27;;
59169;SDS011;52474;52.236;5.114;2022-11-20T04:44:53;26.40;;;11.20;;
59169;SDS011;52474;52.236;5.114;2022-11-20T04:47:19;31.42;;;13.05;;
59169;SDS011;52474;52.236;5.114;2022-11-20T04:49:45;24.00;;;10.75;;
59169;SDS011;52474;52.236;5.114;2022-11-20T04:52:11;34.88;;;13.02;;
59169;SDS011;52474;52.236;5.114;2022-11-20T04:54:37;28.58;;;11.85;;
59169;SDS011;52474;52.236;5.114;2022-11-20T04:57:03;26.17;;;10.00;;
59169;SDS011;52474;52.236;5.114;2022-11-20T04:59:28;23.95;;;9.70;;
59169;SDS011;52474;52.236;5.114;2022-11-20T05:01:54;22.25;;;9.07;;
59169;SDS011;52474;52.236;5.114;2022-11-20T05:04:20;20.00;;;9.55;;
59169;SDS011;52474;52.236;5.114;2022-11-20T05:06:45;19.67;;;8.95;;
59169;SDS011;52474;52.236;5.114;2022-11-20T05:09:12;25.70;;;10.50;;
59169;SDS011;52474;52.236;5.114;2022-11-20T05:11:38;23.05;;;9.85;;
59169;SDS011;52474;52.236;5.114;2022-11-20T05:14:03;21.08;;;9.45;;
59169;SDS011;52474;52.236;5.114;2022-11-20T05:16:29;18.45;;;9.65;;
59169;SDS011;52474;52.236;5.114;2022-11-20T05:18:55;19.98;;;9.02;;
59169;SDS011;52474;52.236;5.114;2022-11-20T05:21:21;18.75;;;10.00;;
59169;SDS011;52474;52.236;5.114;2022-11-20T05:23:47;18.73;;;8.77;;
59169;SDS011;52474;52.236;5.114;2022-11-20T05:26:17;21.88;;;9.63;;
59169;SDS011;52474;52.236;5.114;2022-11-20T05:28:46;22.45;;;9.60;;
59169;SDS011;52474;52.236;5.114;2022-11-20T05:31:13;22.45;;;9.77;;
59169;SDS011;52474;52.236;5.114;2022-11-20T05:33:42;21.65;;;9.85;;
59169;SDS011;52474;52.236;5.114;2022-11-20T05:36:10;20.90;;;8.90;;
59169;SDS011;52474;52.236;5.114;2022-11-20T05:38:37;21.10;;;9.48;;
59169;SDS011;52474;52.236;5.114;2022-11-20T05:41:04;22.08;;;10.38;;
59169;SDS011;52474;52.236;5.114;2022-11-20T05:43:31;22.63;;;9.85;;
59169;SDS011;52474;52.236;5.114;2022-11-20T05:45:58;22.42;;;9.95;;
59169;SDS011;52474;52.236;5.114;2022-11-20T05:48:24;21.95;;;10.20;;
59169;SDS011;52474;52.236;5.114;2022-11-20T05:50:50;20.65;;;9.35;;
59169;SDS011;52474;52.236;5.114;2022-11-20T05:53:15;21.67;;;9.90;;
59169;SDS011;52474;52.236;5.114;2022-11-20T05:55:41;18.77;;;10.30;;
59169;SDS011;52474;52.236;5.114;2022-11-20T05:58:07;20.23;;;9.77;;
59169;SDS011;52474;52.236;5.114;2022-11-20T06:00:33;25.67;;;9.77;;
59169;SDS011;52474;52.236;5.114;2022-11-20T06:02:58;20.92;;;8.35;;
59169;SDS011;52474;52.236;5.114;2022-11-20T06:05:24;25.90;;;10.55;;
59169;SDS011;52474;52.236;5.114;2022-11-20T06:07:49;24.10;;;11.13;;
59169;SDS011;52474;52.236;5.114;2022-11-20T06:10:15;26.42;;;10.18;;
59169;SDS011;52474;52.236;5.114;2022-11-20T06:12:41;22.08;;;10.75;;
59169;SDS011;52474;52.236;5.114;2022-11-20T06:15:07;23.70;;;9.82;;
59169;SDS011;52474;52.236;5.114;2022-11-20T06:17:33;23.95;;;10.75;;
59169;SDS011;52474;52.236;5.114;2022-11-20T06:19:59;26.50;;;11.68;;
59169;SDS011;52474;52.236;5.114;2022-11-20T06:22:24;30.20;;;11.98;;
59169;SDS011;52474;52.236;5.114;2022-11-20T06:24:50;26.98;;;12.32;;
59169;SDS011;52474;52.236;5.114;2022-11-20T06:27:16;30.35;;;13.27;;
59169;SDS011;52474;52.236;5.114;2022-11-20T06:29:41;32.33;;;13.80;;
59169;SDS011;52474;52.236;5.114;2022-11-20T06:32:07;26.40;;;11.63;;
59169;SDS011;52474;52.236;5.114;2022-11-20T06:34:33;25.35;;;11.27;;
59169;SDS011;52474;52.236;5.114;2022-11-20T06:36:59;22.00;;;10.38;;
59169;SDS011;52474;52.236;5.114;2022-11-20T06:39:24;25.42;;;11.32;;
59169;SDS011;52474;52.236;5.114;2022-11-20T06:41:50;30.15;;;13.10;;
59169;SDS011;52474;52.236;5.114;2022-11-20T06:44:16;26.48;;;12.27;;
59169;SDS011;52474;52.236;5.114;2022-11-20T06:46:41;28.75;;;12.13;;
59169;SDS011;52474;52.236;5.114;2022-11-20T06:49:07;23.35;;;10.25;;
59169;SDS011;52474;52.236;5.114;2022-11-20T06:51:32;22.77;;;10.30;;
59169;SDS011;52474;52.236;5.114;2022-11-20T06:53:58;21.02;;;9.45;;
59169;SDS011;52474;52.236;5.114;2022-11-20T06:56:26;26.27;;;10.82;;
59169;SDS011;52474;52.236;5.114;2022-11-20T06:58:52;22.85;;;9.57;;
59169;SDS011;52474;52.236;5.114;2022-11-20T07:01:17;22.95;;;10.57;;
59169;SDS011;52474;52.236;5.114;2022-11-20T07:03:43;21.00;;;10.98;;
59169;SDS011;52474;52.236;5.114;2022-11-20T07:06:09;24.10;;;10.25;;
59169;SDS011;52474;52.236;5.114;2022-11-20T07:08:36;23.98;;;10.43;;
59169;SDS011;52474;52.236;5.114;2022-11-20T07:11:03;22.85;;;10.45;;
59169;SDS011;52474;52.236;5.114;2022-11-20T07:13:31;23.77;;;11.25;;
59169;SDS011;52474;52.236;5.114;2022-11-20T07:16:04;22.90;;;9.93;;
59169;SDS011;52474;52.236;5.114;2022-11-20T07:18:31;24.77;;;10.75;;
59169;SDS011;52474;52.236;5.114;2022-11-20T07:21:00;22.55;;;10.20;;
59169;SDS011;52474;52.236;5.114;2022-11-20T07:23:27;26.23;;;11.60;;
59169;SDS011;52474;52.236;5.114;2022-11-20T07:25:53;27.98;;;11.82;;
59169;SDS011;52474;52.236;5.114;2022-11-20T07:28:19;22.98;;;10.50;;
59169;SDS011;52474;52.236;5.114;2022-11-20T07:30:51;23.90;;;10.85;;
59169;SDS011;52474;52.236;5.114;2022-11-20T07:33:20;25.35;;;12.93;;
59169;SDS011;52474;52.236;5.114;2022-11-20T07:35:45;23.08;;;11.25;;
59169;SDS011;52474;52.236;5.114;2022-11-20T07:38:11;31.80;;;13.35;;
59169;SDS011;52474;52.236;5.114;2022-11-20T07:40:37;28.67;;;13.23;;
59169;SDS011;52474;52.236;5.114;2022-11-20T07:43:03;28.02;;;12.35;;
59169;SDS011;52474;52.236;5.114;2022-11-20T07:45:28;24.73;;;12.15;;
59169;SDS011;52474;52.236;5.114;2022-11-20T07:47:54;26.08;;;12.27;;
59169;SDS011;52474;52.236;5.114;2022-11-20T07:50:20;25.75;;;11.63;;
59169;SDS011;52474;52.236;5.114;2022-11-20T07:52:46;26.92;;;11.85;;
59169;SDS011;52474;52.236;5.114;2022-11-20T07:55:12;27.33;;;12.15;;
59169;SDS011;52474;52.236;5.114;2022-11-20T07:57:38;27.27;;;12.73;;
59169;SDS011;52474;52.236;5.114;2022-11-20T08:00:04;32.45;;;14.77;;
59169;SDS011;52474;52.236;5.114;2022-11-20T08:02:37;29.83;;;13.55;;
59169;SDS011;52474;52.236;5.114;2022-11-20T08:05:04;31.15;;;13.82;;
59169;SDS011;52474;52.236;5.114;2022-11-20T08:07:40;31.75;;;14.38;;
59169;SDS011;52474;52.236;5.114;2022-11-20T08:10:08;28.38;;;12.63;;
59169;SDS011;52474;52.236;5.114;2022-11-20T08:12:36;25.10;;;12.23;;
59169;SDS011;52474;52.236;5.114;2022-11-20T08:15:26;27.42;;;13.45;;
59169;SDS011;52474;52.236;5.114;2022-11-20T08:17:58;24.98;;;12.52;;
59169;SDS011;52474;52.236;5.114;2022-11-20T08:20:24;30.33;;;14.57;;
59169;SDS011;52474;52.236;5.114;2022-11-20T08:22:50;28.70;;;12.70;;
59169;SDS011;52474;52.236;5.114;2022-11-20T08:25:16;24.80;;;11.65;;
59169;SDS011;52474;52.236;5.114;2022-11-20T08:27:41;23.92;;;12.75;;
59169;SDS011;52474;52.236;5.114;2022-11-20T08:30:07;30.35;;;13.25;;
59169;SDS011;52474;52.236;5.114;2022-11-20T08:32:33;27.10;;;13.10;;
59169;SDS011;52474;52.236;5.114;2022-11-20T08:35:01;31.23;;;13.55;;
59169;SDS011;52474;52.236;5.114;2022-11-20T08:37:26;25.88;;;13.18;;
59169;SDS011;52474;52.236;5.114;2022-11-20T08:39:52;27.08;;;12.80;;
59169;SDS011;52474;52.236;5.114;2022-11-20T08:42:18;27.05;;;12.30;;
59169;SDS011;52474;52.236;5.114;2022-11-20T08:44:44;26.77;;;13.25;;
59169;SDS011;52474;52.236;5.114;2022-11-20T08:47:10;24.88;;;12.57;;
59169;SDS011;52474;52.236;5.114;2022-11-20T08:49:35;25.08;;;11.63;;
59169;SDS011;52474;52.236;5.114;2022-11-20T08:52:01;26.65;;;12.15;;
59169;SDS011;52474;52.236;5.114;2022-11-20T08:54:27;27.40;;;13.63;;
59169;SDS011;52474;52.236;5.114;2022-11-20T08:56:52;32.47;;;14.73;;
59169;SDS011;52474;52.236;5.114;2022-11-20T08:59:18;34.67;;;14.48;;
59169;SDS011;52474;52.236;5.114;2022-11-20T09:01:44;33.72;;;14.50;;
59169;SDS011;52474;52.236;5.114;2022-11-20T09:04:10;30.38;;;13.73;;
59169;SDS011;52474;52.236;5.114;2022-11-20T09:06:36;27.25;;;13.63;;
59169;SDS011;52474;52.236;5.114;2022-11-20T09:09:02;25.35;;;12.55;;
59169;SDS011;52474;52.236;5.114;2022-11-20T09:11:28;27.50;;;13.93;;
59169;SDS011;52474;52.236;5.114;2022-11-20T09:13:56;33.33;;;15.00;;
59169;SDS011;52474;52.236;5.114;2022-11-20T09:16:21;29.15;;;14.43;;
59169;SDS011;52474;52.236;5.114;2022-11-20T09:18:49;28.92;;;13.23;;
59169;SDS011;52474;52.236;5.114;2022-11-20T09:21:16;29.13;;;14.35;;
59169;SDS011;52474;52.236;5.114;2022-11-20T09:23:42;26.45;;;14.18;;
59169;SDS011;52474;52.236;5.114;2022-11-20T09:26:11;25.80;;;13.38;;
59169;SDS011;52474;52.236;5.114;2022-11-20T09:28:38;25.27;;;13.05;;
59169;SDS011;52474;52.236;5.114;2022-11-20T09:31:07;25.60;;;12.98;;
59169;SDS011;52474;52.236;5.114;2022-11-20T09:35:59;24.70;;;13.00;;
59169;SDS011;52474;52.236;5.114;2022-11-20T09:38:25;32.63;;;14.93;;
59169;SDS011;52474;52.236;5.114;2022-11-20T09:40:55;30.13;;;14.20;;
59169;SDS011;52474;52.236;5.114;2022-11-20T09:46:14;34.25;;;16.23;;
59169;SDS011;52474;52.236;5.114;2022-11-20T09:51:57;29.42;;;14.68;;
59169;SDS011;52474;52.236;5.114;2022-11-20T09:54:34;28.58;;;13.85;;
59169;SDS011;52474;52.236;5.114;2022-11-20T09:57:05;33.72;;;17.02;;
59169;SDS011;52474;52.236;5.114;2022-11-20T10:05:39;31.15;;;13.48;;
59169;SDS011;52474;52.236;5.114;2022-11-20T10:10:49;30.75;;;15.20;;
59169;SDS011;52474;52.236;5.114;2022-11-20T10:14:06;30.63;;;14.57;;
59169;SDS011;52474;52.236;5.114;2022-11-20T10:25:19;28.13;;;13.52;;
59169;SDS011;52474;52.236;5.114;2022-11-20T10:27:54;30.80;;;15.10;;
59169;SDS011;52474;52.236;5.114;2022-11-20T10:30:35;28.98;;;14.15;;
59169;SDS011;52474;52.236;5.114;2022-11-20T10:33:24;28.88;;;14.70;;
59169;SDS011;52474;52.236;5.114;2022-11-20T10:39:00;27.42;;;13.90;;
59169;SDS011;52474;52.236;5.114;2022-11-20T10:41:37;29.00;;;13.60;;
59169;SDS011;52474;52.236;5.114;2022-11-20T10:44:25;26.13;;;14.10;;
59169;SDS011;52474;52.236;5.114;2022-11-20T10:47:13;30.63;;;14.60;;
59169;SDS011;52474;52.236;5.114;2022-11-20T10:49:41;30.08;;;14.90;;
59169;SDS011;52474;52.236;5.114;2022-11-20T10:55:02;31.10;;;14.60;;
59169;SDS011;52474;52.236;5.114;2022-11-20T10:58:18;32.38;;;14.30;;
59169;SDS011;52474;52.236;5.114;2022-11-20T11:00:30;31.30;;;15.07;;
59169;SDS011;52474;52.236;5.114;2022-11-20T11:03:00;27.27;;;14.13;;
59169;SDS011;52474;52.236;5.114;2022-11-20T11:05:39;33.92;;;15.98;;
59169;SDS011;52474;52.236;5.114;2022-11-20T11:08:16;27.60;;;14.35;;
59169;SDS011;52474;52.236;5.114;2022-11-20T11:13:25;33.20;;;15.93;;
59169;SDS011;52474;52.236;5.114;2022-11-20T11:15:53;31.30;;;16.10;;
59169;SDS011;52474;52.236;5.114;2022-11-20T11:18:37;36.28;;;16.75;;
59169;SDS011;52474;52.236;5.114;2022-11-20T11:21:05;34.72;;;15.40;;
59169;SDS011;52474;52.236;5.114;2022-11-20T11:23:57;31.38;;;16.60;;
59169;SDS011;52474;52.236;5.114;2022-11-20T11:26:26;37.28;;;15.95;;
59169;SDS011;52474;52.236;5.114;2022-11-20T11:28:53;37.33;;;17.25;;
59169;SDS011;52474;52.236;5.114;2022-11-20T11:31:27;33.00;;;15.13;;
59169;SDS011;52474;52.236;5.114;2022-11-20T11:36:56;36.03;;;16.42;;
59169;SDS011;52474;52.236;5.114;2022-11-20T11:39:24;39.17;;;17.13;;
59169;SDS011;52474;52.236;5.114;2022-11-20T11:41:52;38.90;;;18.70;;
59169;SDS011;52474;52.236;5.114;2022-11-20T11:47:22;37.88;;;17.13;;
59169;SDS011;52474;52.236;5.114;2022-11-20T11:58:20;41.38;;;18.88;;
59169;SDS011;52474;52.236;5.114;2022-11-20T12:00:53;36.97;;;18.10;;
59169;SDS011;52474;52.236;5.114;2022-11-20T12:03:28;42.80;;;18.17;;
59169;SDS011;52474;52.236;5.114;2022-11-20T12:06:10;39.88;;;17.98;;
59169;SDS011;52474;52.236;5.114;2022-11-20T12:08:49;44.35;;;18.80;;
59169;SDS011;52474;52.236;5.114;2022-11-20T12:11:20;44.90;;;20.20;;
59169;SDS011;52474;52.236;5.114;2022-11-20T12:16:30;48.10;;;20.10;;
59169;SDS011;52474;52.236;5.114;2022-11-20T12:21:28;44.38;;;19.05;;
59169;SDS011;52474;52.236;5.114;2022-11-20T12:32:43;47.35;;;20.92;;
59169;SDS011;52474;52.236;5.114;2022-11-20T12:42:59;52.78;;;22.70;;
59169;SDS011;52474;52.236;5.114;2022-11-20T12:48:52;55.90;;;22.25;;
59169;SDS011;52474;52.236;5.114;2022-11-20T12:54:16;51.28;;;21.23;;
59169;SDS011;52474;52.236;5.114;2022-11-20T12:57:01;50.97;;;20.30;;
59169;SDS011;52474;52.236;5.114;2022-11-20T13:02:38;55.17;;;24.55;;
59169;SDS011;52474;52.236;5.114;2022-11-20T13:05:22;59.22;;;23.88;;
59169;SDS011;52474;52.236;5.114;2022-11-20T13:07:53;56.88;;;23.15;;
59169;SDS011;52474;52.236;5.114;2022-11-20T13:10:27;59.03;;;23.70;;
59169;SDS011;52474;52.236;5.114;2022-11-20T13:13:07;59.20;;;23.70;;
59169;SDS011;52474;52.236;5.114;2022-11-20T13:15:56;56.17;;;24.20;;
59169;SDS011;52474;52.236;5.114;2022-11-20T13:18:33;59.67;;;25.77;;
59169;SDS011;52474;52.236;5.114;2022-11-20T13:21:12;57.22;;;23.17;;
59169;SDS011;52474;52.236;5.114;2022-11-20T13:23:39;59.58;;;23.77;;
59169;SDS011;52474;52.236;5.114;2022-11-20T13:26:26;55.88;;;23.70;;
59169;SDS011;52474;52.236;5.114;2022-11-20T13:31:46;50.85;;;22.63;;
59169;SDS011;52474;52.236;5.114;2022-11-20T13:34:26;54.10;;;23.83;;
59169;SDS011;52474;52.236;5.114;2022-11-20T13:36:56;59.15;;;26.33;;
59169;SDS011;52474;52.236;5.114;2022-11-20T13:39:43;55.15;;;22.65;;
59169;SDS011;52474;52.236;5.114;2022-11-20T13:42:20;52.40;;;24.20;;
59169;SDS011;52474;52.236;5.114;2022-11-20T13:45:00;58.78;;;24.55;;
59169;SDS011;52474;52.236;5.114;2022-11-20T13:47:33;61.95;;;24.25;;
59169;SDS011;52474;52.236;5.114;2022-11-20T13:50:02;62.67;;;24.63;;
59169;SDS011;52474;52.236;5.114;2022-11-20T13:52:39;56.00;;;22.05;;
59169;SDS011;52474;52.236;5.114;2022-11-20T13:55:48;59.63;;;24.90;;
59169;SDS011;52474;52.236;5.114;2022-11-20T13:58:28;55.20;;;23.45;;
59169;SDS011;52474;52.236;5.114;2022-11-20T14:01:15;59.63;;;24.33;;
59169;SDS011;52474;52.236;5.114;2022-11-20T14:03:45;65.97;;;24.88;;
59169;SDS011;52474;52.236;5.114;2022-11-20T14:08:59;60.78;;;24.15;;
59169;SDS011;52474;52.236;5.114;2022-11-20T14:11:29;57.20;;;23.83;;
59169;SDS011;52474;52.236;5.114;2022-11-20T14:16:41;57.15;;;24.85;;
59169;SDS011;52474;52.236;5.114;2022-11-20T14:19:29;57.92;;;24.65;;
59169;SDS011;52474;52.236;5.114;2022-11-20T14:25:00;65.97;;;26.25;;
59169;SDS011;52474;52.236;5.114;2022-11-20T14:30:24;63.20;;;25.13;;
59169;SDS011;52474;52.236;5.114;2022-11-20T14:37:52;54.40;;;23.15;;
59169;SDS011;52474;52.236;5.114;2022-11-20T14:40:30;62.03;;;25.95;;
59169;SDS011;52474;52.236;5.114;2022-11-20T14:42:57;65.10;;;24.98;;
59169;SDS011;52474;52.236;5.114;2022-11-20T14:45:29;64.97;;;25.65;;
59169;SDS011;52474;52.236;5.114;2022-11-20T14:47:56;63.10;;;25.60;;
59169;SDS011;52474;52.236;5.114;2022-11-20T14:50:26;67.72;;;27.48;;
59169;SDS011;52474;52.236;5.114;2022-11-20T14:52:55;72.43;;;26.52;;
59169;SDS011;52474;52.236;5.114;2022-11-20T14:55:35;61.20;;;24.92;;
59169;SDS011;52474;52.236;5.114;2022-11-20T14:58:03;66.60;;;23.63;;
59169;SDS011;52474;52.236;5.114;2022-11-20T15:00:31;67.05;;;26.23;;
59169;SDS011;52474;52.236;5.114;2022-11-20T15:02:59;84.13;;;30.85;;
59169;SDS011;52474;52.236;5.114;2022-11-20T15:05:26;123.30;;;45.83;;
59169;SDS011;52474;52.236;5.114;2022-11-20T15:08:10;102.40;;;42.78;;
59169;SDS011;52474;52.236;5.114;2022-11-20T15:10:37;121.10;;;48.72;;
59169;SDS011;52474;52.236;5.114;2022-11-20T15:13:53;128.75;;;56.13;;
59169;SDS011;52474;52.236;5.114;2022-11-20T15:15:58;123.32;;;52.03;;
59169;SDS011;52474;52.236;5.114;2022-11-20T15:18:32;107.32;;;48.20;;
59169;SDS011;52474;52.236;5.114;2022-11-20T15:21:14;97.28;;;42.97;;
59169;SDS011;52474;52.236;5.114;2022-11-20T15:23:42;80.18;;;34.08;;
59169;SDS011;52474;52.236;5.114;2022-11-20T15:26:08;66.50;;;27.90;;
59169;SDS011;52474;52.236;5.114;2022-11-20T15:28:37;72.20;;;29.27;;
59169;SDS011;52474;52.236;5.114;2022-11-20T15:31:16;66.07;;;25.55;;
59169;SDS011;52474;52.236;5.114;2022-11-20T15:33:43;64.82;;;26.27;;
59169;SDS011;52474;52.236;5.114;2022-11-20T15:36:10;68.97;;;27.10;;
59169;SDS011;52474;52.236;5.114;2022-11-20T15:38:36;67.78;;;26.45;;
59169;SDS011;52474;52.236;5.114;2022-11-20T15:41:02;57.95;;;23.23;;
59169;SDS011;52474;52.236;5.114;2022-11-20T15:43:28;68.43;;;24.60;;
59169;SDS011;52474;52.236;5.114;2022-11-20T15:45:58;66.30;;;27.13;;
59169;SDS011;52474;52.236;5.114;2022-11-20T15:48:45;63.88;;;25.02;;
59169;SDS011;52474;52.236;5.114;2022-11-20T15:51:21;48.78;;;21.50;;
59169;SDS011;52474;52.236;5.114;2022-11-20T15:53:48;49.90;;;20.80;;
59169;SDS011;52474;52.236;5.114;2022-11-20T15:56:14;64.88;;;25.45;;
59169;SDS011;52474;52.236;5.114;2022-11-20T15:58:40;61.30;;;24.58;;
59169;SDS011;52474;52.236;5.114;2022-11-20T16:01:12;55.42;;;22.38;;
59169;SDS011;52474;52.236;5.114;2022-11-20T16:03:40;49.53;;;20.52;;
59169;SDS011;52474;52.236;5.114;2022-11-20T16:06:08;54.67;;;22.17;;
59169;SDS011;52474;52.236;5.114;2022-11-20T16:08:34;49.75;;;19.92;;
59169;SDS011;52474;52.236;5.114;2022-11-20T16:11:00;50.55;;;22.30;;
59169;SDS011;52474;52.236;5.114;2022-11-20T16:13:26;44.83;;;20.10;;
59169;SDS011;52474;52.236;5.114;2022-11-20T16:16:33;50.05;;;21.63;;
59169;SDS011;52474;52.236;5.114;2022-11-20T16:21:27;51.65;;;21.70;;
59169;SDS011;52474;52.236;5.114;2022-11-20T16:23:57;58.40;;;21.83;;
59169;SDS011;52474;52.236;5.114;2022-11-20T16:26:24;49.08;;;21.63;;